Time;durP1;ratioP1;P1;durP2;ratioP2;P2;SDS_P1;SDS_P2;PMS_P1;PMS_P2;Temp;Humidity;BMP_temperature;BMP_pressure;BME280_temperature;BME280_humidity;BME280_pressure;Samples;Min_cycle;Max_cycle;Signal;HPM_P1;HPM_P2
2021/01/15 00:01:04;;;;;;;1.70;0.20;;;1.10;99.90;;;;;;5017509;28;20286;-60
2021/01/15 00:03:35;;;;;;;1.80;0.45;;;1.00;99.90;;;;;;5015854;28;20206;-60
2021/01/15 00:06:05;;;;;;;4.32;1.15;;;0.90;99.90;;;;;;5015454;28;20776;-60
2021/01/15 00:08:37;;;;;;;1.95;0.28;;;1.00;99.90;;;;;;5012165;28;20192;-60
2021/01/15 00:11:03;;;;;;;3.25;0.90;;;1.00;99.90;;;;;;5013209;28;20207;-60
2021/01/15 00:13:28;;;;;;;1.70;0.20;;;1.00;99.90;;;;;;5011085;28;20186;-61
2021/01/15 00:15:54;;;;;;;1.70;0.20;;;1.00;99.90;;;;;;5019543;28;20548;-60
2021/01/15 00:18:19;;;;;;;1.70;0.20;;;1.00;99.90;;;;;;5013692;28;20244;-60
2021/01/15 00:20:45;;;;;;;1.77;0.40;;;1.00;99.90;;;;;;5015802;28;20301;-60
2021/01/15 00:23:10;;;;;;;1.80;0.40;;;1.00;99.90;;;;;;5018214;28;20226;-60
2021/01/15 00:25:36;;;;;;;1.70;0.20;;;1.00;99.90;;;;;;5015721;28;20269;-60
2021/01/15 00:28:02;;;;;;;1.70;0.20;;;1.00;99.90;;;;;;5011589;28;20665;-60
2021/01/15 00:30:28;;;;;;;1.70;0.20;;;1.10;99.90;;;;;;5020027;28;20202;-60
2021/01/15 00:32:53;;;;;;;1.80;0.30;;;1.10;99.90;;;;;;5012876;28;20268;-60
2021/01/15 00:35:19;;;;;;;1.70;0.20;;;1.00;99.90;;;;;;5018016;28;20205;-61
2021/01/15 00:37:44;;;;;;;1.77;0.27;;;1.00;99.90;;;;;;5018064;28;20178;-60
2021/01/15 00:40:10;;;;;;;1.73;0.40;;;1.00;99.90;;;;;;5017264;28;20244;-60
2021/01/15 00:42:36;;;;;;;1.80;0.30;;;0.90;99.90;;;;;;5020396;28;20190;-60
2021/01/15 00:45:02;;;;;;;1.90;0.50;;;0.90;99.90;;;;;;5018732;28;20542;-60
2021/01/15 00:47:31;;;;;;;1.70;0.20;;;0.90;99.90;;;;;;5014104;28;20186;-61
2021/01/15 00:49:57;;;;;;;1.70;0.20;;;0.90;99.90;;;;;;5023897;28;20214;-60
2021/01/15 00:52:23;;;;;;;1.70;0.20;;;0.80;99.90;;;;;;5010622;28;20301;-60
2021/01/15 00:54:48;;;;;;;1.70;0.20;;;0.80;99.90;;;;;;5011033;28;20310;-60
2021/01/15 00:57:14;;;;;;;1.80;0.40;;;0.90;99.90;;;;;;5000953;28;20191;-60
2021/01/15 00:59:40;;;;;;;1.70;0.20;;;0.90;99.90;;;;;;5018215;28;20828;-60
2021/01/15 01:02:06;;;;;;;1.70;0.20;;;0.80;99.90;;;;;;5020189;28;20225;-60
2021/01/15 01:04:31;;;;;;;1.70;0.20;;;0.80;99.90;;;;;;5014579;28;20266;-60
2021/01/15 01:06:57;;;;;;;1.70;0.20;;;0.90;99.90;;;;;;5013655;28;20279;-60
2021/01/15 01:09:24;;;;;;;1.70;0.20;;;0.90;99.90;;;;;;5019117;28;20183;-60
2021/01/15 01:11:49;;;;;;;1.70;0.20;;;0.90;99.90;;;;;;5016140;28;20255;-60
2021/01/15 01:14:15;;;;;;;1.70;0.20;;;0.90;99.90;;;;;;5013661;28;20190;-60
2021/01/15 01:16:40;;;;;;;1.70;0.20;;;0.90;99.90;;;;;;5011700;28;20213;-60
2021/01/15 01:19:06;;;;;;;1.70;0.20;;;0.90;99.90;;;;;;5015665;28;20593;-60
2021/01/15 01:21:34;;;;;;;2.00;0.70;;;0.90;99.90;;;;;;4993002;28;20222;-60
2021/01/15 01:24:00;;;;;;;1.70;0.20;;;0.90;99.90;;;;;;5022428;28;20646;-60
2021/01/15 01:26:25;;;;;;;3.10;1.00;;;0.90;99.90;;;;;;5013804;28;20189;-60
2021/01/15 01:28:51;;;;;;;2.10;0.70;;;0.90;99.90;;;;;;5012620;28;20221;-60
2021/01/15 01:31:17;;;;;;;1.70;0.20;;;0.90;99.90;;;;;;5016487;28;20211;-60
2021/01/15 01:33:43;;;;;;;1.70;0.20;;;0.80;99.90;;;;;;5012434;28;20194;-60
2021/01/15 01:36:10;;;;;;;1.70;0.20;;;0.90;99.90;;;;;;5015226;28;20213;-59
2021/01/15 01:38:38;;;;;;;1.73;0.20;;;0.90;99.90;;;;;;5020200;28;20542;-59
2021/01/15 01:41:03;;;;;;;1.70;0.20;;;0.80;99.90;;;;;;5015036;28;20573;-60
2021/01/15 01:43:29;;;;;;;1.70;0.20;;;0.90;99.90;;;;;;5012885;28;20183;-60
2021/01/15 01:46:00;;;;;;;1.70;0.20;;;0.80;99.90;;;;;;5025318;28;20185;-60
2021/01/15 01:48:26;;;;;;;1.70;0.20;;;0.80;99.90;;;;;;5050394;22;20306;-67
2021/01/15 01:50:53;;;;;;;2.10;0.80;;;0.80;99.90;;;;;;5026660;28;20219;-64
2021/01/15 01:53:21;;;;;;;1.70;0.20;;;0.80;99.90;;;;;;5038703;28;20513;-64
2021/01/15 01:55:47;;;;;;;1.70;0.20;;;0.80;99.90;;;;;;5032920;28;20178;-65
2021/01/15 01:58:16;;;;;;;1.70;0.20;;;0.80;99.90;;;;;;5039522;28;20212;-64
2021/01/15 02:00:43;;;;;;;1.70;0.20;;;0.80;99.90;;;;;;5041493;28;20189;-64
2021/01/15 02:03:08;;;;;;;2.00;0.20;;;0.80;99.90;;;;;;5031980;28;20273;-65
2021/01/15 02:05:35;;;;;;;1.70;0.20;;;0.80;99.90;;;;;;5032538;28;20209;-64
2021/01/15 02:08:00;;;;;;;1.70;0.20;;;0.80;99.90;;;;;;5037936;28;20260;-64
2021/01/15 02:10:40;;;;;;;1.70;0.20;;;0.80;99.90;;;;;;5031307;28;20269;-64
2021/01/15 02:13:44;;;;;;;2.38;0.77;;;0.80;99.90;;;;;;5037997;28;20603;-64
2021/01/15 02:16:17;;;;;;;1.70;0.20;;;0.60;99.90;;;;;;5032924;28;20196;-65
2021/01/15 02:18:50;;;;;;;1.70;0.20;;;0.70;99.90;;;;;;5037248;28;20292;-64
2021/01/15 02:21:54;;;;;;;1.80;0.50;;;0.70;99.90;;;;;;5038152;28;20630;-64
2021/01/15 02:24:34;;;;;;;1.70;0.20;;;0.70;99.90;;;;;;5036821;28;20190;-65
2021/01/15 02:27:12;;;;;;;1.70;0.20;;;0.70;99.90;;;;;;5037501;28;20181;-64
2021/01/15 02:29:53;;;;;;;1.70;0.20;;;0.70;99.90;;;;;;5031752;28;20719;-64
2021/01/15 02:32:57;;;;;;;1.77;0.38;;;0.70;99.90;;;;;;5039851;28;20653;-64
2021/01/15 02:35:35;;;;;;;3.20;1.10;;;0.70;99.90;;;;;;5042681;28;20181;-65
2021/01/15 02:38:20;;;;;;;1.70;0.22;;;0.70;99.90;;;;;;5031975;28;20213;-64
2021/01/15 02:41:04;;;;;;;1.70;0.20;;;0.60;99.90;;;;;;5016964;28;20281;-64
2021/01/15 02:43:32;;;;;;;1.70;0.20;;;0.60;99.90;;;;;;5031619;28;20188;-64
2021/01/15 02:45:59;;;;;;;1.70;0.20;;;0.60;99.90;;;;;;5032115;28;20728;-64
2021/01/15 02:48:28;;;;;;;1.70;0.20;;;0.60;99.90;;;;;;5033201;28;20292;-65
2021/01/15 02:50:54;;;;;;;1.70;0.20;;;0.60;99.90;;;;;;5042081;28;20186;-64
2021/01/15 02:53:20;;;;;;;1.70;0.20;;;0.60;99.90;;;;;;5019439;28;20209;-64
2021/01/15 02:55:45;;;;;;;1.70;0.20;;;0.60;99.90;;;;;;5031145;28;20277;-64
2021/01/15 02:58:12;;;;;;;1.70;0.20;;;0.60;99.90;;;;;;5039993;28;20287;-64
2021/01/15 03:00:38;;;;;;;1.70;0.20;;;0.50;99.90;;;;;;5037820;28;20185;-64
2021/01/15 03:03:28;;;;;;;1.70;0.20;;;0.50;99.90;;;;;;5020797;28;20209;-64
2021/01/15 03:06:02;;;;;;;1.70;0.20;;;0.40;99.90;;;;;;5042576;28;20186;-64
2021/01/15 03:08:28;;;;;;;1.70;0.20;;;0.30;99.90;;;;;;5041867;28;20212;-65
2021/01/15 03:10:59;;;;;;;1.90;0.65;;;0.40;99.90;;;;;;5033992;28;20290;-64
2021/01/15 03:13:28;;;;;;;1.80;0.40;;;0.40;99.90;;;;;;5033216;28;20592;-64
2021/01/15 03:15:56;;;;;;;1.70;0.20;;;0.40;99.90;;;;;;5037770;28;20193;-64
2021/01/15 03:18:22;;;;;;;1.70;0.20;;;0.40;99.90;;;;;;5030785;28;20544;-66
2021/01/15 03:20:47;;;;;;;1.70;0.20;;;0.40;99.90;;;;;;5045747;28;20502;-65
2021/01/15 03:23:13;;;;;;;1.70;0.20;;;0.40;99.90;;;;;;5043866;28;20265;-65
2021/01/15 03:25:38;;;;;;;1.80;0.40;;;0.40;99.90;;;;;;5035556;28;20209;-64
2021/01/15 03:28:04;;;;;;;3.03;0.80;;;0.30;99.90;;;;;;5044423;28;20680;-65
2021/01/15 03:30:31;;;;;;;1.80;0.50;;;0.20;99.90;;;;;;5049811;28;20201;-67
2021/01/15 03:32:59;;;;;;;2.42;0.85;;;0.30;99.90;;;;;;5051976;28;20238;-65
2021/01/15 03:35:26;;;;;;;2.10;0.60;;;0.20;99.90;;;;;;5061823;28;20213;-66
2021/01/15 03:38:01;;;;;;;1.70;0.20;;;0.20;99.90;;;;;;5048647;28;20201;-65
2021/01/15 03:40:42;;;;;;;1.70;0.20;;;0.30;99.90;;;;;;5054219;28;20180;-64
2021/01/15 03:43:22;;;;;;;2.92;1.55;;;0.30;99.90;;;;;;5039499;28;20180;-65
2021/01/15 03:45:50;;;;;;;1.70;0.20;;;0.30;99.90;;;;;;5053860;28;20198;-64
2021/01/15 03:48:16;;;;;;;3.85;0.95;;;0.20;99.90;;;;;;5018771;28;20223;-63
2021/01/15 03:50:46;;;;;;;1.70;0.20;;;0.20;99.90;;;;;;5040631;28;20572;-63
2021/01/15 03:53:15;;;;;;;1.70;0.20;;;0.20;99.90;;;;;;5032723;28;20699;-63
2021/01/15 03:55:41;;;;;;;2.10;0.75;;;0.30;99.90;;;;;;5032292;28;20236;-63
2021/01/15 03:58:07;;;;;;;1.70;0.20;;;0.30;99.90;;;;;;5040762;28;20206;-63
2021/01/15 04:00:32;;;;;;;1.70;0.20;;;0.40;99.90;;;;;;5034077;28;20186;-63
2021/01/15 04:02:58;;;;;;;1.70;0.20;;;0.40;99.90;;;;;;5038420;28;20213;-65
2021/01/15 04:05:23;;;;;;;1.70;0.20;;;0.40;99.90;;;;;;5032772;28;20223;-64
2021/01/15 04:07:49;;;;;;;1.70;0.20;;;0.40;99.90;;;;;;5031009;28;20209;-63
2021/01/15 04:10:17;;;;;;;1.70;0.20;;;0.30;99.90;;;;;;5039886;28;20185;-64
2021/01/15 04:12:43;;;;;;;1.70;0.20;;;0.30;99.90;;;;;;5042999;28;20291;-64
2021/01/15 04:15:13;;;;;;;1.70;0.20;;;0.30;99.90;;;;;;5031369;28;20281;-64
2021/01/15 04:17:39;;;;;;;1.70;0.20;;;0.40;99.90;;;;;;5029841;28;20704;-63
2021/01/15 04:20:13;;;;;;;1.70;0.20;;;0.40;99.90;;;;;;5038556;28;20185;-63
2021/01/15 04:22:43;;;;;;;1.80;0.30;;;0.40;99.90;;;;;;5031070;28;20209;-64
2021/01/15 04:25:09;;;;;;;1.70;0.20;;;0.30;99.90;;;;;;5040793;28;20243;-64
2021/01/15 04:27:36;;;;;;;1.77;0.30;;;0.40;99.90;;;;;;5026956;28;20205;-65
2021/01/15 04:30:04;;;;;;;1.70;0.20;;;0.30;99.90;;;;;;5033995;28;20219;-64
2021/01/15 04:32:31;;;;;;;1.70;0.20;;;0.30;99.90;;;;;;5038955;28;20220;-65
2021/01/15 04:34:57;;;;;;;1.70;0.20;;;0.30;99.90;;;;;;5037836;28;20192;-64
2021/01/15 04:37:23;;;;;;;1.70;0.20;;;0.30;99.90;;;;;;5035648;28;20182;-64
2021/01/15 04:39:48;;;;;;;1.70;0.20;;;0.30;99.90;;;;;;5036056;28;20178;-65
2021/01/15 04:42:15;;;;;;;1.70;0.20;;;0.20;99.90;;;;;;5031664;28;20269;-64
2021/01/15 04:44:42;;;;;;;1.73;0.20;;;0.20;99.90;;;;;;5033037;28;20186;-65
2021/01/15 04:47:09;;;;;;;1.70;0.20;;;0.20;99.90;;;;;;5031487;28;20191;-64
2021/01/15 04:49:38;;;;;;;1.70;0.20;;;0.20;99.90;;;;;;5034643;28;20195;-64
2021/01/15 04:52:13;;;;;;;1.70;0.20;;;0.20;99.90;;;;;;5031985;28;20205;-64
2021/01/15 04:54:41;;;;;;;1.70;0.20;;;0.30;99.90;;;;;;5033815;28;20239;-65
2021/01/15 04:57:10;;;;;;;1.70;0.20;;;0.20;99.90;;;;;;5032550;28;20232;-64
2021/01/15 04:59:44;;;;;;;1.70;0.20;;;0.30;99.90;;;;;;5031913;28;20258;-64
2021/01/15 05:02:11;;;;;;;1.70;0.20;;;0.30;99.90;;;;;;5039809;28;20190;-64
2021/01/15 05:04:37;;;;;;;1.70;0.20;;;0.40;99.90;;;;;;5036366;28;20174;-64
2021/01/15 05:07:07;;;;;;;1.70;0.20;;;0.40;99.90;;;;;;5024561;28;20180;-64
2021/01/15 05:09:46;;;;;;;1.70;0.20;;;0.40;99.90;;;;;;5030250;28;20445;-64
2021/01/15 05:12:16;;;;;;;1.70;0.20;;;0.40;99.90;;;;;;5032431;28;20201;-65
2021/01/15 05:14:42;;;;;;;1.70;0.20;;;0.40;99.90;;;;;;5032775;28;20174;-65
2021/01/15 05:17:09;;;;;;;1.70;0.20;;;0.50;99.90;;;;;;5036886;28;20190;-65
2021/01/15 05:19:41;;;;;;;1.70;0.20;;;0.60;99.90;;;;;;5027916;28;20178;-64
2021/01/15 05:22:08;;;;;;;1.70;0.20;;;0.50;99.90;;;;;;5023624;28;20204;-64
2021/01/15 05:24:34;;;;;;;1.70;0.20;;;0.60;99.90;;;;;;5034692;28;20182;-64
2021/01/15 05:30:17;;;;;;;1.70;0.20;;;0.60;99.90;;;;;;5029888;28;20489;-64
2021/01/15 05:32:44;;;;;;;1.70;0.20;;;0.70;99.90;;;;;;5023945;28;20206;-64
2021/01/15 05:35:11;;;;;;;1.70;0.20;;;0.70;99.90;;;;;;5040458;28;20178;-63
2021/01/15 05:37:36;;;;;;;1.70;0.20;;;0.70;99.90;;;;;;5030013;28;20194;-64
2021/01/15 05:40:04;;;;;;;1.70;0.20;;;0.70;99.90;;;;;;5035796;28;20197;-64
2021/01/15 05:42:30;;;;;;;1.70;0.30;;;0.80;99.90;;;;;;5033117;28;20186;-63
2021/01/15 05:45:16;;;;;;;1.70;0.20;;;0.80;99.90;;;;;;5032597;28;20188;-64
2021/01/15 05:47:43;;;;;;;1.70;0.20;;;0.70;99.90;;;;;;5036503;28;20209;-64
2021/01/15 05:50:10;;;;;;;1.70;0.20;;;0.70;99.90;;;;;;5037962;28;20268;-63
2021/01/15 05:52:36;;;;;;;1.70;0.20;;;0.70;99.90;;;;;;5030474;28;20198;-64
2021/01/15 05:55:11;;;;;;;1.70;0.20;;;0.70;99.90;;;;;;5037673;28;20212;-64
2021/01/15 05:57:38;;;;;;;1.70;0.20;;;0.70;99.90;;;;;;5036598;28;20282;-64
2021/01/15 06:00:05;;;;;;;1.70;0.20;;;0.90;99.90;;;;;;5020175;28;20184;-64
2021/01/15 06:02:30;;;;;;;1.70;0.20;;;0.60;99.90;;;;;;5027032;28;20218;-64
2021/01/15 06:04:56;;;;;;;1.70;0.20;;;0.60;99.90;;;;;;5036820;28;20236;-64
2021/01/15 06:07:21;;;;;;;1.70;0.20;;;0.60;99.90;;;;;;5034832;28;20191;-64
2021/01/15 06:09:48;;;;;;;1.70;0.20;;;0.50;99.90;;;;;;5039729;28;20240;-64
2021/01/15 06:12:19;;;;;;;1.70;0.20;;;0.60;99.90;;;;;;5030979;28;20233;-64
2021/01/15 06:14:49;;;;;;;1.70;0.20;;;0.50;99.90;;;;;;5030486;28;20640;-64
2021/01/15 06:17:16;;;;;;;1.73;0.30;;;0.40;99.90;;;;;;5029621;28;20532;-65
2021/01/15 06:19:49;;;;;;;1.70;0.20;;;0.20;99.90;;;;;;5038673;28;20182;-64
2021/01/15 06:22:44;;;;;;;1.70;0.20;;;0.40;99.90;;;;;;5032599;28;20182;-63
2021/01/15 06:25:28;;;;;;;1.70;0.28;;;0.50;99.90;;;;;;5019447;28;20626;-64
2021/01/15 06:27:59;;;;;;;1.70;0.20;;;0.50;99.90;;;;;;5032839;28;20221;-64
2021/01/15 06:30:30;;;;;;;1.70;0.20;;;0.50;99.90;;;;;;5032011;28;20196;-64
2021/01/15 06:33:13;;;;;;;1.70;0.20;;;0.60;99.90;;;;;;5034161;28;20228;-63
2021/01/15 06:35:41;;;;;;;1.70;0.20;;;0.60;99.90;;;;;;5026500;28;20198;-65
2021/01/15 06:38:18;;;;;;;1.70;0.20;;;0.60;99.90;;;;;;5029294;28;20206;-64
2021/01/15 06:40:49;;;;;;;1.70;0.20;;;0.70;99.90;;;;;;5036645;28;20265;-64
2021/01/15 06:43:30;;;;;;;1.70;0.20;;;0.70;99.90;;;;;;5038137;28;20185;-65
2021/01/15 06:46:00;;;;;;;1.70;0.20;;;0.70;99.90;;;;;;5044204;28;20201;-64
2021/01/15 06:48:32;;;;;;;1.70;0.25;;;0.70;99.90;;;;;;5055608;28;20207;-65
2021/01/15 06:50:58;;;;;;;1.70;0.20;;;0.70;99.90;;;;;;5057547;28;20715;-65
2021/01/15 06:53:29;;;;;;;2.00;0.73;;;0.60;99.90;;;;;;5042562;28;20288;-64
2021/01/15 06:55:59;;;;;;;1.70;0.20;;;0.60;99.90;;;;;;5034680;28;20174;-64
2021/01/15 06:58:39;;;;;;;1.73;0.20;;;0.70;99.90;;;;;;5042166;28;20193;-63
2021/01/15 07:01:18;;;;;;;1.80;0.52;;;0.70;99.90;;;;;;5033630;28;20629;-63
2021/01/15 07:04:01;;;;;;;1.70;0.20;;;0.60;99.90;;;;;;5035609;28;20190;-63
2021/01/15 07:06:29;;;;;;;1.70;0.20;;;0.60;99.90;;;;;;5013911;28;20225;-63
2021/01/15 07:08:55;;;;;;;1.70;0.20;;;0.50;99.90;;;;;;5036931;28;20197;-64
2021/01/15 07:11:23;;;;;;;1.70;0.20;;;0.40;99.90;;;;;;5037967;28;20249;-64
2021/01/15 07:13:54;;;;;;;1.70;0.20;;;0.40;99.90;;;;;;5031223;28;20182;-63
2021/01/15 07:16:33;;;;;;;1.70;0.20;;;0.40;99.90;;;;;;5031359;28;20189;-62
2021/01/15 07:19:05;;;;;;;1.70;0.20;;;0.50;99.90;;;;;;5030048;28;20206;-64
2021/01/15 07:21:57;;;;;;;1.70;0.20;;;0.30;99.90;;;;;;5030185;28;20186;-64
2021/01/15 07:24:28;;;;;;;1.70;0.20;;;0.20;99.90;;;;;;5040696;28;20185;-65
2021/01/15 07:26:54;;;;;;;1.70;0.20;;;0.00;99.90;;;;;;5018963;28;20545;-64
2021/01/15 07:29:20;;;;;;;1.70;0.30;;;0.40;99.90;;;;;;5017638;28;20212;-64
2021/01/15 07:31:51;;;;;;;1.70;0.20;;;0.40;99.90;;;;;;5030150;28;20210;-63
2021/01/15 07:34:21;;;;;;;1.70;0.20;;;0.40;99.90;;;;;;5033738;28;20186;-65
2021/01/15 07:36:46;;;;;;;1.70;0.20;;;0.40;99.90;;;;;;5021998;28;20633;-65
2021/01/15 07:39:14;;;;;;;1.70;0.20;;;0.40;99.90;;;;;;5039886;28;20201;-63
2021/01/15 07:41:53;;;;;;;1.70;0.20;;;0.30;99.90;;;;;;5032650;28;20190;-63
2021/01/15 07:44:24;;;;;;;1.70;0.20;;;0.20;99.90;;;;;;5034484;28;20205;-63
2021/01/15 07:46:54;;;;;;;1.70;0.20;;;0.20;99.90;;;;;;5035618;28;20633;-64
2021/01/15 07:49:21;;;;;;;1.70;0.20;;;0.20;99.90;;;;;;5036483;28;20368;-64
2021/01/15 07:52:05;;;;;;;1.75;0.40;;;0.20;99.90;;;;;;5019195;28;20202;-65
2021/01/15 07:54:46;;;;;;;1.70;0.20;;;0.20;99.90;;;;;;5033257;28;20193;-64
2021/01/15 07:57:16;;;;;;;1.70;0.20;;;0.20;99.90;;;;;;5019199;28;20255;-65
2021/01/15 07:59:41;;;;;;;1.70;0.20;;;0.20;99.90;;;;;;5034785;28;20545;-64
2021/01/15 08:02:08;;;;;;;1.70;0.20;;;0.30;99.90;;;;;;5019763;28;20188;-65
2021/01/15 08:04:33;;;;;;;1.70;0.20;;;0.30;99.90;;;;;;5031041;28;20596;-64
2021/01/15 08:07:26;;;;;;;1.70;0.20;;;0.10;99.90;;;;;;5037822;28;20194;-64
2021/01/15 08:09:52;;;;;;;1.70;0.20;;;0.10;99.90;;;;;;5034748;28;20687;-66
2021/01/15 08:12:17;;;;;;;1.70;0.40;;;0.10;99.90;;;;;;5031052;28;20284;-64
2021/01/15 08:14:43;;;;;;;1.90;0.60;;;0.10;99.90;;;;;;5034212;28;20289;-64
2021/01/15 08:17:14;;;;;;;1.70;0.20;;;0.20;99.90;;;;;;5026827;22;20635;-59
2021/01/15 08:19:40;;;;;;;1.70;0.20;;;0.10;99.90;;;;;;5013007;28;20174;-59
2021/01/15 08:22:07;;;;;;;13.57;2.25;;;0.10;99.90;;;;;;5018007;28;20210;-58
2021/01/15 08:24:53;;;;;;;1.70;0.20;;;0.10;99.90;;;;;;5021020;28;20183;-59
2021/01/15 08:27:21;;;;;;;1.70;0.20;;;0.10;99.90;;;;;;5014575;28;20210;-59
2021/01/15 08:29:46;;;;;;;3.80;1.88;;;0.20;99.90;;;;;;5023994;28;20190;-58
2021/01/15 08:32:12;;;;;;;1.70;0.30;;;-0.10;99.90;;;;;;5025336;28;20656;-58
2021/01/15 08:34:39;;;;;;;5.95;0.43;;;0.10;99.90;;;;;;5016770;28;20653;-58
2021/01/15 08:37:06;;;;;;;1.70;0.20;;;-0.10;99.90;;;;;;5021330;28;20565;-58
2021/01/15 08:39:55;;;;;;;1.70;0.20;;;0.10;99.90;;;;;;5020030;28;20174;-58
2021/01/15 08:42:21;;;;;;;2.20;0.70;;;0.20;99.90;;;;;;5015006;28;20784;-59
2021/01/15 08:44:48;;;;;;;7.87;3.87;;;0.20;99.90;;;;;;5018874;28;20245;-59
2021/01/15 08:47:17;;;;;;;1.70;0.20;;;0.30;99.90;;;;;;5023407;28;20214;-59
2021/01/15 08:49:56;;;;;;;1.70;0.20;;;0.20;99.90;;;;;;5019445;28;20259;-58
2021/01/15 08:52:24;;;;;;;1.70;0.20;;;0.20;99.90;;;;;;5016919;28;20750;-59
2021/01/15 08:54:51;;;;;;;1.70;0.20;;;0.40;99.90;;;;;;5017822;28;20191;-59
2021/01/15 08:57:20;;;;;;;3.55;2.45;;;0.40;99.90;;;;;;5018635;28;20277;-59
2021/01/15 08:59:46;;;;;;;3.22;2.15;;;0.30;99.90;;;;;;5026027;28;20195;-58
2021/01/15 09:02:13;;;;;;;4.53;1.50;;;0.30;99.90;;;;;;5022892;28;20247;-59
2021/01/15 09:04:43;;;;;;;1.90;0.43;;;0.40;99.90;;;;;;5014693;28;20186;-60
2021/01/15 09:07:09;;;;;;;2.60;0.93;;;0.50;99.90;;;;;;5024790;28;20202;-60
2021/01/15 09:09:36;;;;;;;1.98;0.60;;;0.50;99.90;;;;;;5021616;28;20584;-58
2021/01/15 09:12:04;;;;;;;1.73;0.30;;;0.50;99.90;;;;;;5021260;28;20296;-58
2021/01/15 09:14:33;;;;;;;1.70;0.20;;;0.50;99.90;;;;;;5000948;28;20665;-59
2021/01/15 09:17:00;;;;;;;3.63;1.92;;;0.50;99.90;;;;;;5017180;28;20210;-59
2021/01/15 09:19:25;;;;;;;5.53;3.00;;;0.60;99.90;;;;;;5018184;28;20186;-60
2021/01/15 09:22:01;;;;;;;3.43;2.30;;;0.60;99.90;;;;;;5015445;28;20288;-60
2021/01/15 09:24:31;;;;;;;1.70;0.20;;;0.40;99.90;;;;;;5014287;28;20190;-59
2021/01/15 09:26:57;;;;;;;5.07;1.30;;;0.70;99.90;;;;;;5013832;28;20206;-59
2021/01/15 09:29:23;;;;;;;1.70;0.20;;;0.80;99.90;;;;;;4999970;28;20170;-60
2021/01/15 09:31:49;;;;;;;1.70;0.20;;;0.80;99.90;;;;;;5014898;28;20202;-59
2021/01/15 09:34:15;;;;;;;2.60;1.17;;;0.80;99.90;;;;;;5022328;28;20220;-59
2021/01/15 09:36:42;;;;;;;4.28;1.20;;;0.90;99.90;;;;;;5023079;28;20668;-59
2021/01/15 09:39:09;;;;;;;1.70;0.20;;;0.90;99.90;;;;;;5012931;28;20648;-59
2021/01/15 09:41:41;;;;;;;1.70;0.20;;;1.00;99.90;;;;;;5015082;28;20270;-59
2021/01/15 09:44:06;;;;;;;7.80;3.75;;;1.00;99.90;;;;;;5015118;28;20195;-59
2021/01/15 09:46:31;;;;;;;1.73;0.27;;;1.10;99.90;;;;;;5013573;28;20179;-59
2021/01/15 09:48:58;;;;;;;1.70;0.20;;;1.20;99.90;;;;;;5017180;28;20268;-60
2021/01/15 09:51:25;;;;;;;18.83;3.13;;;1.20;99.90;;;;;;5021216;28;20244;-62
2021/01/15 09:53:55;;;;;;;2.55;0.55;;;1.30;99.90;;;;;;5022889;28;20661;-59
2021/01/15 09:56:22;;;;;;;1.73;0.20;;;1.40;99.90;;;;;;5022307;28;20899;-59
2021/01/15 09:58:47;;;;;;;6.40;3.13;;;1.50;99.90;;;;;;5020939;28;20190;-58
2021/01/15 10:01:12;;;;;;;1.70;0.20;;;1.50;99.90;;;;;;5018185;28;20514;-65
2021/01/15 10:03:38;;;;;;;1.70;0.20;;;1.60;99.90;;;;;;5018880;28;20210;-59
2021/01/15 10:06:04;;;;;;;1.70;0.20;;;1.60;99.90;;;;;;5017929;28;20707;-58
2021/01/15 10:08:29;;;;;;;2.60;0.97;;;1.60;99.90;;;;;;5018394;28;20210;-58
2021/01/15 10:10:54;;;;;;;1.70;0.30;;;1.60;99.90;;;;;;5026446;28;20664;-58
2021/01/15 10:13:20;;;;;;;1.70;0.20;;;1.60;99.90;;;;;;5013351;28;20217;-59
2021/01/15 10:15:46;;;;;;;3.90;1.93;;;1.60;99.90;;;;;;4995557;28;20272;-58
2021/01/15 10:18:11;;;;;;;1.80;0.40;;;1.60;99.90;;;;;;5016659;28;20202;-58
2021/01/15 10:20:44;;;;;;;3.07;1.57;;;1.60;99.90;;;;;;5018642;28;20239;-58
2021/01/15 10:23:10;;;;;;;1.70;0.20;;;1.70;99.90;;;;;;5011312;28;20187;-58
2021/01/15 10:25:35;;;;;;;4.03;2.93;;;1.70;99.90;;;;;;5018728;28;20293;-58
2021/01/15 10:28:01;;;;;;;3.03;1.23;;;1.70;99.90;;;;;;5019697;28;20288;-59
2021/01/15 10:30:26;;;;;;;1.70;0.20;;;1.70;99.90;;;;;;5023321;28;20214;-58
2021/01/15 10:32:52;;;;;;;2.03;0.77;;;1.70;99.90;;;;;;5026154;28;20217;-58
2021/01/15 10:35:18;;;;;;;2.40;0.80;;;1.70;99.90;;;;;;5019593;28;20187;-59
2021/01/15 10:37:44;;;;;;;1.70;0.20;;;1.80;99.90;;;;;;5019496;28;20258;-58
2021/01/15 10:40:10;;;;;;;2.10;0.97;;;1.90;99.90;;;;;;5025198;28;20247;-58
2021/01/15 10:42:37;;;;;;;1.90;0.85;;;1.80;99.90;;;;;;5019818;28;20577;-59
2021/01/15 10:45:04;;;;;;;1.70;0.20;;;1.90;99.90;;;;;;5019863;28;20658;-58
2021/01/15 10:47:29;;;;;;;5.20;2.78;;;1.90;99.90;;;;;;5017496;28;20336;-59
2021/01/15 10:49:54;;;;;;;3.00;1.33;;;1.90;99.90;;;;;;5022571;28;20214;-58
2021/01/15 10:52:20;;;;;;;4.53;1.80;;;1.90;99.90;;;;;;5018942;28;20210;-58
2021/01/15 10:54:46;;;;;;;1.70;0.20;;;1.90;99.90;;;;;;5024302;28;20193;-58
2021/01/15 10:57:11;;;;;;;6.13;4.10;;;2.00;99.90;;;;;;5016331;28;20203;-59
2021/01/15 10:59:37;;;;;;;1.80;0.30;;;2.00;99.90;;;;;;5019480;28;20198;-58
2021/01/15 11:02:02;;;;;;;1.80;0.30;;;2.00;99.90;;;;;;5020118;28;20217;-58
2021/01/15 11:04:28;;;;;;;7.80;3.83;;;2.10;99.90;;;;;;5021021;28;20529;-58
2021/01/15 11:06:54;;;;;;;10.37;3.33;;;2.00;99.90;;;;;;5019958;28;20248;-58
2021/01/15 11:09:21;;;;;;;1.70;0.20;;;2.00;99.90;;;;;;5015569;28;20214;-58
2021/01/15 11:11:48;;;;;;;1.73;0.20;;;2.10;99.90;;;;;;5025751;28;20213;-59
2021/01/15 11:14:14;;;;;;;5.63;4.88;;;2.10;99.90;;;;;;5019683;28;20197;-58
2021/01/15 11:16:40;;;;;;;2.00;0.40;;;2.20;99.90;;;;;;5015896;28;20277;-58
2021/01/15 11:19:05;;;;;;;3.17;1.53;;;2.20;99.90;;;;;;5022618;28;20234;-58
2021/01/15 11:21:31;;;;;;;2.23;1.23;;;2.20;99.90;;;;;;5021759;28;20187;-58
2021/01/15 11:23:57;;;;;;;2.30;0.60;;;2.20;99.90;;;;;;5017983;28;20197;-58
2021/01/15 11:26:26;;;;;;;4.27;1.77;;;2.30;99.90;;;;;;5017462;28;20266;-58
2021/01/15 11:28:53;;;;;;;2.42;0.90;;;2.30;99.90;;;;;;5020697;28;20661;-58
2021/01/15 11:31:19;;;;;;;3.72;2.25;;;2.30;99.90;;;;;;5021581;28;20179;-58
2021/01/15 11:33:45;;;;;;;1.70;0.20;;;2.30;99.90;;;;;;5025824;28;20182;-58
2021/01/15 11:36:12;;;;;;;3.58;1.52;;;2.30;99.90;;;;;;5017017;28;20185;-58
2021/01/15 11:38:38;;;;;;;1.70;0.20;;;2.30;99.90;;;;;;5019289;28;20203;-58
2021/01/15 11:41:04;;;;;;;5.65;3.22;;;2.40;99.90;;;;;;5023526;28;20266;-58
2021/01/15 11:43:37;;;;;;;11.13;4.53;;;2.40;99.90;;;;;;5017223;28;20244;-58
2021/01/15 11:46:04;;;;;;;1.73;0.20;;;2.50;99.90;;;;;;5008740;28;20840;-58
2021/01/15 11:48:31;;;;;;;2.30;0.50;;;2.50;99.90;;;;;;5023480;28;20190;-58
2021/01/15 11:50:57;;;;;;;1.73;0.20;;;2.50;99.90;;;;;;5014706;28;20190;-57
2021/01/15 11:53:23;;;;;;;7.30;3.08;;;2.50;99.90;;;;;;5019955;28;20211;-57
2021/01/15 11:55:51;;;;;;;5.70;2.22;;;2.60;99.90;;;;;;5025234;28;20277;-59
2021/01/15 11:58:16;;;;;;;1.70;0.20;;;2.50;99.90;;;;;;5014624;28;20206;-57
2021/01/15 12:00:42;;;;;;;4.83;2.57;;;2.60;99.90;;;;;;5016803;28;20197;-59
2021/01/15 12:03:07;;;;;;;1.73;0.20;;;2.70;99.90;;;;;;5020558;28;20189;-58
2021/01/15 12:05:33;;;;;;;7.47;2.90;;;2.60;99.90;;;;;;5017697;28;20193;-58
2021/01/15 12:07:58;;;;;;;2.27;1.07;;;2.60;99.90;;;;;;5024552;28;20212;-61
2021/01/15 12:10:24;;;;;;;2.23;0.80;;;2.60;99.90;;;;;;5014607;28;20183;-59
2021/01/15 12:12:49;;;;;;;1.70;0.20;;;2.60;99.90;;;;;;5015260;28;20669;-59
2021/01/15 12:15:15;;;;;;;1.70;0.20;;;2.60;99.90;;;;;;5018854;28;20245;-57
2021/01/15 12:17:40;;;;;;;1.70;0.30;;;2.60;99.90;;;;;;5019056;28;20750;-57
2021/01/15 12:20:06;;;;;;;1.70;0.20;;;2.60;99.90;;;;;;5022182;28;20180;-58
2021/01/15 12:22:32;;;;;;;1.70;0.20;;;2.60;99.90;;;;;;5022917;28;20182;-60
2021/01/15 12:24:57;;;;;;;5.63;2.87;;;2.60;99.90;;;;;;5015537;28;20503;-56
2021/01/15 12:27:24;;;;;;;1.70;0.20;;;2.60;99.90;;;;;;5016872;28;20206;-57
2021/01/15 12:29:49;;;;;;;2.22;1.30;;;2.60;99.90;;;;;;5014433;28;20197;-58
2021/01/15 12:32:15;;;;;;;1.90;0.30;;;2.60;99.90;;;;;;4996533;28;20214;-58
2021/01/15 12:34:40;;;;;;;2.67;0.73;;;2.60;99.90;;;;;;5013845;28;20189;-57
2021/01/15 12:37:06;;;;;;;1.70;0.20;;;2.60;99.90;;;;;;5021821;28;20202;-57
2021/01/15 12:39:31;;;;;;;2.10;0.87;;;2.60;99.90;;;;;;5015331;28;20179;-58
2021/01/15 12:41:57;;;;;;;14.50;13.60;;;2.70;99.90;;;;;;5018962;28;20642;-57
2021/01/15 12:44:22;;;;;;;1.70;0.20;;;2.80;99.90;;;;;;5014373;28;20274;-58
2021/01/15 12:46:48;;;;;;;1.80;0.30;;;2.80;99.90;;;;;;5016327;28;20229;-58
2021/01/15 12:49:14;;;;;;;2.00;1.13;;;2.80;99.90;;;;;;5024137;28;20187;-58
2021/01/15 12:51:42;;;;;;;1.70;0.20;;;2.80;99.90;;;;;;5013351;28;20260;-57
2021/01/15 12:54:08;;;;;;;1.70;0.20;;;2.70;99.90;;;;;;5012998;28;20800;-57
2021/01/15 12:56:35;;;;;;;3.50;2.43;;;2.70;99.90;;;;;;5022829;28;20183;-57
2021/01/15 12:59:01;;;;;;;3.85;1.25;;;2.70;99.90;;;;;;5016213;28;20186;-57
2021/01/15 13:01:34;;;;;;;4.13;1.50;;;2.70;99.90;;;;;;5014680;28;20243;-57
2021/01/15 13:03:59;;;;;;;1.80;0.68;;;2.60;99.90;;;;;;5019074;28;20178;-58
2021/01/15 13:06:25;;;;;;;2.10;0.73;;;2.60;99.90;;;;;;5019161;28;20190;-57
2021/01/15 13:08:50;;;;;;;1.70;0.30;;;2.60;99.90;;;;;;5018602;28;20179;-57